sensor_id;sensor_type;location;lat;lon;timestamp;pressure;altitude;pressure_sealevel;temperature
70969;BMP280;58630;43.022;25.100;2023-05-29T00:01:24;;;;21.70
70969;BMP280;58630;43.022;25.100;2023-05-29T00:03:50;;;;21.70
70969;BMP280;58630;43.022;25.100;2023-05-29T00:06:16;;;;21.70
70969;BMP280;58630;43.022;25.100;2023-05-29T00:08:42;;;;21.70
70969;BMP280;58630;43.022;25.100;2023-05-29T00:11:07;;;;21.70
70969;BMP280;58630;43.022;25.100;2023-05-29T00:13:33;;;;21.70
70969;BMP280;58630;43.022;25.100;2023-05-29T00:15:58;;;;21.70
70969;BMP280;58630;43.022;25.100;2023-05-29T00:18:26;;;;21.60
70969;BMP280;58630;43.022;25.100;2023-05-29T00:20:52;;;;21.60
70969;BMP280;58630;43.022;25.100;2023-05-29T00:23:18;;;;21.60
70969;BMP280;58630;43.022;25.100;2023-05-29T00:25:44;;;;21.60
70969;BMP280;58630;43.022;25.100;2023-05-29T00:28:10;;;;21.60
70969;BMP280;58630;43.022;25.100;2023-05-29T00:30:37;;;;21.60
70969;BMP280;58630;43.022;25.100;2023-05-29T00:33:02;;;;21.60
70969;BMP280;58630;43.022;25.100;2023-05-29T00:35:28;;;;21.60
70969;BMP280;58630;43.022;25.100;2023-05-29T00:37:53;;;;21.60
70969;BMP280;58630;43.022;25.100;2023-05-29T00:40:19;;;;21.60
70969;BMP280;58630;43.022;25.100;2023-05-29T00:42:45;;;;21.60
70969;BMP280;58630;43.022;25.100;2023-05-29T00:45:10;;;;21.50
70969;BMP280;58630;43.022;25.100;2023-05-29T00:47:36;;;;21.60
70969;BMP280;58630;43.022;25.100;2023-05-29T00:50:02;;;;21.50
70969;BMP280;58630;43.022;25.100;2023-05-29T00:52:29;;;;21.50
70969;BMP280;58630;43.022;25.100;2023-05-29T00:54:54;;;;21.50
70969;BMP280;58630;43.022;25.100;2023-05-29T00:57:20;;;;21.50
70969;BMP280;58630;43.022;25.100;2023-05-29T00:59:47;;;;21.50
70969;BMP280;58630;43.022;25.100;2023-05-29T01:02:14;;;;21.50
70969;BMP280;58630;43.022;25.100;2023-05-29T01:04:40;;;;21.50
70969;BMP280;58630;43.022;25.100;2023-05-29T01:07:05;;;;21.50
70969;BMP280;58630;43.022;25.100;2023-05-29T01:09:32;;;;21.50
70969;BMP280;58630;43.022;25.100;2023-05-29T01:12:03;;;;21.50
70969;BMP280;58630;43.022;25.100;2023-05-29T01:17:16;;;;21.50
70969;BMP280;58630;43.022;25.100;2023-05-29T01:19:47;;;;21.50
70969;BMP280;58630;43.022;25.100;2023-05-29T01:22:41;;;;21.40
70969;BMP280;58630;43.022;25.100;2023-05-29T01:27:56;;;;21.40
70969;BMP280;58630;43.022;25.100;2023-05-29T01:30:25;;;;21.40
70969;BMP280;58630;43.022;25.100;2023-05-29T01:32:53;;;;21.40
70969;BMP280;58630;43.022;25.100;2023-05-29T01:35:18;;;;21.40
70969;BMP280;58630;43.022;25.100;2023-05-29T01:37:44;;;;21.40
70969;BMP280;58630;43.022;25.100;2023-05-29T01:40:09;;;;21.40
70969;BMP280;58630;43.022;25.100;2023-05-29T01:42:35;;;;21.40
70969;BMP280;58630;43.022;25.100;2023-05-29T01:45:01;;;;21.40
70969;BMP280;58630;43.022;25.100;2023-05-29T01:47:26;;;;21.30
70969;BMP280;58630;43.022;25.100;2023-05-29T01:49:52;;;;21.40
70969;BMP280;58630;43.022;25.100;2023-05-29T01:52:19;;;;21.30
70969;BMP280;58630;43.022;25.100;2023-05-29T01:54:45;;;;21.30
70969;BMP280;58630;43.022;25.100;2023-05-29T01:57:11;;;;21.30
70969;BMP280;58630;43.022;25.100;2023-05-29T01:59:37;;;;21.30
70969;BMP280;58630;43.022;25.100;2023-05-29T02:02:09;;;;21.30
70969;BMP280;58630;43.022;25.100;2023-05-29T02:04:35;;;;21.30
70969;BMP280;58630;43.022;25.100;2023-05-29T02:07:01;;;;21.30
70969;BMP280;58630;43.022;25.100;2023-05-29T02:09:26;;;;21.30
70969;BMP280;58630;43.022;25.100;2023-05-29T02:11:52;;;;21.30
70969;BMP280;58630;43.022;25.100;2023-05-29T02:14:18;;;;21.30
70969;BMP280;58630;43.022;25.100;2023-05-29T02:16:43;;;;21.30
70969;BMP280;58630;43.022;25.100;2023-05-29T02:19:10;;;;21.30
70969;BMP280;58630;43.022;25.100;2023-05-29T02:21:39;;;;21.20
70969;BMP280;58630;43.022;25.100;2023-05-29T02:24:06;;;;21.20
70969;BMP280;58630;43.022;25.100;2023-05-29T02:26:32;;;;21.20
70969;BMP280;58630;43.022;25.100;2023-05-29T02:28:58;;;;21.20
70969;BMP280;58630;43.022;25.100;2023-05-29T02:31:23;;;;21.20
70969;BMP280;58630;43.022;25.100;2023-05-29T02:33:49;;;;21.20
70969;BMP280;58630;43.022;25.100;2023-05-29T02:36:14;;;;21.20
70969;BMP280;58630;43.022;25.100;2023-05-29T02:38:41;;;;21.20
70969;BMP280;58630;43.022;25.100;2023-05-29T02:41:07;;;;21.20
70969;BMP280;58630;43.022;25.100;2023-05-29T02:43:32;;;;21.20
70969;BMP280;58630;43.022;25.100;2023-05-29T02:45:58;;;;21.20
70969;BMP280;58630;43.022;25.100;2023-05-29T02:48:23;;;;21.20
70969;BMP280;58630;43.022;25.100;2023-05-29T02:50:49;;;;21.20
70969;BMP280;58630;43.022;25.100;2023-05-29T02:53:15;;;;21.20
70969;BMP280;58630;43.022;25.100;2023-05-29T02:55:41;;;;21.10
70969;BMP280;58630;43.022;25.100;2023-05-29T02:58:08;;;;21.20
70969;BMP280;58630;43.022;25.100;2023-05-29T03:00:33;;;;21.10
70969;BMP280;58630;43.022;25.100;2023-05-29T03:02:59;;;;21.10
70969;BMP280;58630;43.022;25.100;2023-05-29T03:05:25;;;;21.10
70969;BMP280;58630;43.022;25.100;2023-05-29T03:07:51;;;;21.10
70969;BMP280;58630;43.022;25.100;2023-05-29T03:10:16;;;;21.10
70969;BMP280;58630;43.022;25.100;2023-05-29T03:12:42;;;;21.10
70969;BMP280;58630;43.022;25.100;2023-05-29T03:15:09;;;;21.10
70969;BMP280;58630;43.022;25.100;2023-05-29T03:17:34;;;;21.10
70969;BMP280;58630;43.022;25.100;2023-05-29T03:20:03;;;;21.10
70969;BMP280;58630;43.022;25.100;2023-05-29T03:22:31;;;;21.10
70969;BMP280;58630;43.022;25.100;2023-05-29T03:24:57;;;;21.10
70969;BMP280;58630;43.022;25.100;2023-05-29T03:27:23;;;;21.10
70969;BMP280;58630;43.022;25.100;2023-05-29T03:29:48;;;;21.10
70969;BMP280;58630;43.022;25.100;2023-05-29T03:32:14;;;;21.10
70969;BMP280;58630;43.022;25.100;2023-05-29T03:34:39;;;;21.10
70969;BMP280;58630;43.022;25.100;2023-05-29T03:37:05;;;;21.00
70969;BMP280;58630;43.022;25.100;2023-05-29T03:39:31;;;;21.00
70969;BMP280;58630;43.022;25.100;2023-05-29T03:41:56;;;;21.00
70969;BMP280;58630;43.022;25.100;2023-05-29T03:44:22;;;;21.00
70969;BMP280;58630;43.022;25.100;2023-05-29T03:46:47;;;;21.00
70969;BMP280;58630;43.022;25.100;2023-05-29T03:49:13;;;;21.00
70969;BMP280;58630;43.022;25.100;2023-05-29T03:51:38;;;;21.00
70969;BMP280;58630;43.022;25.100;2023-05-29T03:54:04;;;;21.00
70969;BMP280;58630;43.022;25.100;2023-05-29T03:56:30;;;;21.00
70969;BMP280;58630;43.022;25.100;2023-05-29T03:58:55;;;;21.00
70969;BMP280;58630;43.022;25.100;2023-05-29T04:01:21;;;;21.00
70969;BMP280;58630;43.022;25.100;2023-05-29T04:03:46;;;;21.00
70969;BMP280;58630;43.022;25.100;2023-05-29T04:06:12;;;;21.00
70969;BMP280;58630;43.022;25.100;2023-05-29T04:08:38;;;;21.00
70969;BMP280;58630;43.022;25.100;2023-05-29T04:11:03;;;;21.00
70969;BMP280;58630;43.022;25.100;2023-05-29T04:13:30;;;;21.00
70969;BMP280;58630;43.022;25.100;2023-05-29T04:15:55;;;;21.00
70969;BMP280;58630;43.022;25.100;2023-05-29T04:18:21;;;;21.00
70969;BMP280;58630;43.022;25.100;2023-05-29T04:20:46;;;;21.00
70969;BMP280;58630;43.022;25.100;2023-05-29T04:23:13;;;;21.00
70969;BMP280;58630;43.022;25.100;2023-05-29T04:25:38;;;;21.00
70969;BMP280;58630;43.022;25.100;2023-05-29T04:28:04;;;;21.00
70969;BMP280;58630;43.022;25.100;2023-05-29T04:30:29;;;;21.00
70969;BMP280;58630;43.022;25.100;2023-05-29T04:32:55;;;;21.00
70969;BMP280;58630;43.022;25.100;2023-05-29T04:35:22;;;;21.00
70969;BMP280;58630;43.022;25.100;2023-05-29T04:37:48;;;;21.00
70969;BMP280;58630;43.022;25.100;2023-05-29T04:40:13;;;;21.00
70969;BMP280;58630;43.022;25.100;2023-05-29T04:42:42;;;;21.00
70969;BMP280;58630;43.022;25.100;2023-05-29T04:45:10;;;;21.00
70969;BMP280;58630;43.022;25.100;2023-05-29T04:47:38;;;;21.00
70969;BMP280;58630;43.022;25.100;2023-05-29T04:50:12;;;;21.00
70969;BMP280;58630;43.022;25.100;2023-05-29T04:52:37;;;;21.00
70969;BMP280;58630;43.022;25.100;2023-05-29T04:55:03;;;;21.00
70969;BMP280;58630;43.022;25.100;2023-05-29T04:57:29;;;;21.00
70969;BMP280;58630;43.022;25.100;2023-05-29T04:59:55;;;;21.00
70969;BMP280;58630;43.022;25.100;2023-05-29T05:02:21;;;;21.00
70969;BMP280;58630;43.022;25.100;2023-05-29T05:04:46;;;;21.00
70969;BMP280;58630;43.022;25.100;2023-05-29T05:07:12;;;;21.00
70969;BMP280;58630;43.022;25.100;2023-05-29T05:09:38;;;;21.00
70969;BMP280;58630;43.022;25.100;2023-05-29T05:12:04;;;;21.00
70969;BMP280;58630;43.022;25.100;2023-05-29T05:14:29;;;;21.00
70969;BMP280;58630;43.022;25.100;2023-05-29T05:16:55;;;;21.00
70969;BMP280;58630;43.022;25.100;2023-05-29T05:19:20;;;;21.00
70969;BMP280;58630;43.022;25.100;2023-05-29T05:21:46;;;;21.00
70969;BMP280;58630;43.022;25.100;2023-05-29T05:24:11;;;;21.00
70969;BMP280;58630;43.022;25.100;2023-05-29T05:26:37;;;;21.00
70969;BMP280;58630;43.022;25.100;2023-05-29T05:29:02;;;;21.00
70969;BMP280;58630;43.022;25.100;2023-05-29T05:31:28;;;;21.00
70969;BMP280;58630;43.022;25.100;2023-05-29T05:33:53;;;;21.00
70969;BMP280;58630;43.022;25.100;2023-05-29T05:36:19;;;;21.00
70969;BMP280;58630;43.022;25.100;2023-05-29T05:38:48;;;;21.00
70969;BMP280;58630;43.022;25.100;2023-05-29T05:41:14;;;;21.00
70969;BMP280;58630;43.022;25.100;2023-05-29T05:43:39;;;;21.00
70969;BMP280;58630;43.022;25.100;2023-05-29T05:46:05;;;;21.00
70969;BMP280;58630;43.022;25.100;2023-05-29T05:48:30;;;;21.00
70969;BMP280;58630;43.022;25.100;2023-05-29T05:50:56;;;;21.10
70969;BMP280;58630;43.022;25.100;2023-05-29T05:53:21;;;;21.10
70969;BMP280;58630;43.022;25.100;2023-05-29T05:55:47;;;;21.10
70969;BMP280;58630;43.022;25.100;2023-05-29T05:58:13;;;;21.10
70969;BMP280;58630;43.022;25.100;2023-05-29T06:00:39;;;;21.10
70969;BMP280;58630;43.022;25.100;2023-05-29T06:03:05;;;;21.10
70969;BMP280;58630;43.022;25.100;2023-05-29T06:05:30;;;;21.10
70969;BMP280;58630;43.022;25.100;2023-05-29T06:07:56;;;;21.10
70969;BMP280;58630;43.022;25.100;2023-05-29T06:10:21;;;;21.10
70969;BMP280;58630;43.022;25.100;2023-05-29T06:12:47;;;;21.10
70969;BMP280;58630;43.022;25.100;2023-05-29T06:15:12;;;;21.10
70969;BMP280;58630;43.022;25.100;2023-05-29T06:17:38;;;;21.10
70969;BMP280;58630;43.022;25.100;2023-05-29T06:20:04;;;;21.10
70969;BMP280;58630;43.022;25.100;2023-05-29T06:22:35;;;;21.10
70969;BMP280;58630;43.022;25.100;2023-05-29T06:25:00;;;;21.10
70969;BMP280;58630;43.022;25.100;2023-05-29T06:27:26;;;;21.10
70969;BMP280;58630;43.022;25.100;2023-05-29T06:29:52;;;;21.10
70969;BMP280;58630;43.022;25.100;2023-05-29T06:32:17;;;;21.10
70969;BMP280;58630;43.022;25.100;2023-05-29T06:34:43;;;;21.10
70969;BMP280;58630;43.022;25.100;2023-05-29T06:37:08;;;;21.20
70969;BMP280;58630;43.022;25.100;2023-05-29T06:39:34;;;;21.10
70969;BMP280;58630;43.022;25.100;2023-05-29T06:42:00;;;;21.10
70969;BMP280;58630;43.022;25.100;2023-05-29T06:44:26;;;;21.20
70969;BMP280;58630;43.022;25.100;2023-05-29T06:46:52;;;;21.20
70969;BMP280;58630;43.022;25.100;2023-05-29T06:49:17;;;;21.20
70969;BMP280;58630;43.022;25.100;2023-05-29T06:51:43;;;;21.20
70969;BMP280;58630;43.022;25.100;2023-05-29T06:54:09;;;;21.20
70969;BMP280;58630;43.022;25.100;2023-05-29T06:56:35;;;;21.10
70969;BMP280;58630;43.022;25.100;2023-05-29T06:59:00;;;;21.20
70969;BMP280;58630;43.022;25.100;2023-05-29T07:01:26;;;;21.20
70969;BMP280;58630;43.022;25.100;2023-05-29T07:03:52;;;;21.20
70969;BMP280;58630;43.022;25.100;2023-05-29T07:06:18;;;;21.20
70969;BMP280;58630;43.022;25.100;2023-05-29T07:08:43;;;;21.20
70969;BMP280;58630;43.022;25.100;2023-05-29T07:11:09;;;;21.20
70969;BMP280;58630;43.022;25.100;2023-05-29T07:13:34;;;;21.20
70969;BMP280;58630;43.022;25.100;2023-05-29T07:16:01;;;;21.20
70969;BMP280;58630;43.022;25.100;2023-05-29T07:18:26;;;;21.20
70969;BMP280;58630;43.022;25.100;2023-05-29T07:20:52;;;;21.20
70969;BMP280;58630;43.022;25.100;2023-05-29T07:23:17;;;;21.20
70969;BMP280;58630;43.022;25.100;2023-05-29T07:25:43;;;;21.10
70969;BMP280;58630;43.022;25.100;2023-05-29T07:28:09;;;;21.20
70969;BMP280;58630;43.022;25.100;2023-05-29T07:30:34;;;;21.20
70969;BMP280;58630;43.022;25.100;2023-05-29T07:33:00;;;;21.20
70969;BMP280;58630;43.022;25.100;2023-05-29T07:35:25;;;;21.20
70969;BMP280;58630;43.022;25.100;2023-05-29T07:37:51;;;;21.20
70969;BMP280;58630;43.022;25.100;2023-05-29T07:40:17;;;;21.20
70969;BMP280;58630;43.022;25.100;2023-05-29T07:42:43;;;;21.20
70969;BMP280;58630;43.022;25.100;2023-05-29T07:45:08;;;;21.20
70969;BMP280;58630;43.022;25.100;2023-05-29T07:47:34;;;;21.20
70969;BMP280;58630;43.022;25.100;2023-05-29T07:49:59;;;;21.20
70969;BMP280;58630;43.022;25.100;2023-05-29T07:52:25;;;;21.20
70969;BMP280;58630;43.022;25.100;2023-05-29T07:54:50;;;;21.10
70969;BMP280;58630;43.022;25.100;2023-05-29T07:57:16;;;;21.20
70969;BMP280;58630;43.022;25.100;2023-05-29T07:59:42;;;;21.20
70969;BMP280;58630;43.022;25.100;2023-05-29T08:02:08;;;;21.20
70969;BMP280;58630;43.022;25.100;2023-05-29T08:04:33;;;;21.10
70969;BMP280;58630;43.022;25.100;2023-05-29T08:07:00;;;;21.10
70969;BMP280;58630;43.022;25.100;2023-05-29T08:09:26;;;;21.10
70969;BMP280;58630;43.022;25.100;2023-05-29T08:11:52;;;;21.10
70969;BMP280;58630;43.022;25.100;2023-05-29T08:14:17;;;;21.10
70969;BMP280;58630;43.022;25.100;2023-05-29T08:16:43;;;;21.10
70969;BMP280;58630;43.022;25.100;2023-05-29T08:19:08;;;;21.10
70969;BMP280;58630;43.022;25.100;2023-05-29T08:21:34;;;;21.10
70969;BMP280;58630;43.022;25.100;2023-05-29T08:23:59;;;;21.10
70969;BMP280;58630;43.022;25.100;2023-05-29T08:26:26;;;;21.10
70969;BMP280;58630;43.022;25.100;2023-05-29T08:28:51;;;;21.10
70969;BMP280;58630;43.022;25.100;2023-05-29T08:31:17;;;;21.10
70969;BMP280;58630;43.022;25.100;2023-05-29T08:33:42;;;;21.10
70969;BMP280;58630;43.022;25.100;2023-05-29T08:36:08;;;;21.10
70969;BMP280;58630;43.022;25.100;2023-05-29T08:38:34;;;;21.10
70969;BMP280;58630;43.022;25.100;2023-05-29T08:40:59;;;;21.10
70969;BMP280;58630;43.022;25.100;2023-05-29T08:43:25;;;;21.10
70969;BMP280;58630;43.022;25.100;2023-05-29T08:45:54;;;;21.10
70969;BMP280;58630;43.022;25.100;2023-05-29T08:48:23;;;;21.10
70969;BMP280;58630;43.022;25.100;2023-05-29T08:50:50;;;;21.10
70969;BMP280;58630;43.022;25.100;2023-05-29T08:53:17;;;;21.10
70969;BMP280;58630;43.022;25.100;2023-05-29T08:55:44;;;;21.10
70969;BMP280;58630;43.022;25.100;2023-05-29T08:58:13;;;;21.10
70969;BMP280;58630;43.022;25.100;2023-05-29T09:00:39;;;;21.10
70969;BMP280;58630;43.022;25.100;2023-05-29T09:03:06;;;;21.10
70969;BMP280;58630;43.022;25.100;2023-05-29T09:05:32;;;;21.10
70969;BMP280;58630;43.022;25.100;2023-05-29T09:07:57;;;;21.10
70969;BMP280;58630;43.022;25.100;2023-05-29T09:10:24;;;;21.10
70969;BMP280;58630;43.022;25.100;2023-05-29T09:12:50;;;;21.10
70969;BMP280;58630;43.022;25.100;2023-05-29T09:15:25;;;;21.10
70969;BMP280;58630;43.022;25.100;2023-05-29T09:20:17;;;;21.10
70969;BMP280;58630;43.022;25.100;2023-05-29T09:22:52;;;;21.10
70969;BMP280;58630;43.022;25.100;2023-05-29T09:25:18;;;;21.10
70969;BMP280;58630;43.022;25.100;2023-05-29T09:27:46;;;;21.10
70969;BMP280;58630;43.022;25.100;2023-05-29T09:33:02;;;;21.10
70969;BMP280;58630;43.022;25.100;2023-05-29T09:35:32;;;;20.90
70969;BMP280;58630;43.022;25.100;2023-05-29T09:37:57;;;;20.80
70969;BMP280;58630;43.022;25.100;2023-05-29T09:40:23;;;;20.70
70969;BMP280;58630;43.022;25.100;2023-05-29T09:42:49;;;;20.60
70969;BMP280;58630;43.022;25.100;2023-05-29T09:45:17;;;;20.60
70969;BMP280;58630;43.022;25.100;2023-05-29T09:47:43;;;;20.60
70969;BMP280;58630;43.022;25.100;2023-05-29T09:50:17;;;;20.60
70969;BMP280;58630;43.022;25.100;2023-05-29T09:52:43;;;;20.60
70969;BMP280;58630;43.022;25.100;2023-05-29T09:55:09;;;;20.60
70969;BMP280;58630;43.022;25.100;2023-05-29T09:57:36;;;;20.60
70969;BMP280;58630;43.022;25.100;2023-05-29T10:00:02;;;;20.60
70969;BMP280;58630;43.022;25.100;2023-05-29T10:02:29;;;;20.60
70969;BMP280;58630;43.022;25.100;2023-05-29T10:04:54;;;;20.60
70969;BMP280;58630;43.022;25.100;2023-05-29T10:09:45;;;;20.80
70969;BMP280;58630;43.022;25.100;2023-05-29T10:12:13;;;;20.80
70969;BMP280;58630;43.022;25.100;2023-05-29T10:14:43;;;;20.90
70969;BMP280;58630;43.022;25.100;2023-05-29T10:17:09;;;;20.90
70969;BMP280;58630;43.022;25.100;2023-05-29T10:19:38;;;;21.00
70969;BMP280;58630;43.022;25.100;2023-05-29T10:22:04;;;;21.10
70969;BMP280;58630;43.022;25.100;2023-05-29T10:24:31;;;;21.20
70969;BMP280;58630;43.022;25.100;2023-05-29T10:26:57;;;;21.30
70969;BMP280;58630;43.022;25.100;2023-05-29T10:37:02;;;;21.50
70969;BMP280;58630;43.022;25.100;2023-05-29T10:39:29;;;;21.60
70969;BMP280;58630;43.022;25.100;2023-05-29T10:41:54;;;;21.60
70969;BMP280;58630;43.022;25.100;2023-05-29T10:47:04;;;;21.70
70969;BMP280;58630;43.022;25.100;2023-05-29T10:49:30;;;;21.70
70969;BMP280;58630;43.022;25.100;2023-05-29T10:51:57;;;;21.70
70969;BMP280;58630;43.022;25.100;2023-05-29T10:54:24;;;;21.70
70969;BMP280;58630;43.022;25.100;2023-05-29T10:56:56;;;;21.70
70969;BMP280;58630;43.022;25.100;2023-05-29T10:59:22;;;;21.70
70969;BMP280;58630;43.022;25.100;2023-05-29T11:01:52;;;;21.70
70969;BMP280;58630;43.022;25.100;2023-05-29T11:06:47;;;;21.80
70969;BMP280;58630;43.022;25.100;2023-05-29T11:09:29;;;;21.90
70969;BMP280;58630;43.022;25.100;2023-05-29T11:14:47;;;;22.00
70969;BMP280;58630;43.022;25.100;2023-05-29T11:17:42;;;;22.10
70969;BMP280;58630;43.022;25.100;2023-05-29T11:20:14;;;;22.30
70969;BMP280;58630;43.022;25.100;2023-05-29T11:25:06;;;;22.70
70969;BMP280;58630;43.022;25.100;2023-05-29T11:27:32;;;;22.80
70969;BMP280;58630;43.022;25.100;2023-05-29T11:29:58;;;;22.80
70969;BMP280;58630;43.022;25.100;2023-05-29T11:32:24;;;;22.80
70969;BMP280;58630;43.022;25.100;2023-05-29T11:34:52;;;;22.80
70969;BMP280;58630;43.022;25.100;2023-05-29T11:37:19;;;;22.90
70969;BMP280;58630;43.022;25.100;2023-05-29T11:39:45;;;;22.90
70969;BMP280;58630;43.022;25.100;2023-05-29T11:42:11;;;;23.00
70969;BMP280;58630;43.022;25.100;2023-05-29T11:44:36;;;;23.00
70969;BMP280;58630;43.022;25.100;2023-05-29T11:47:02;;;;23.00
70969;BMP280;58630;43.022;25.100;2023-05-29T11:49:29;;;;23.00
70969;BMP280;58630;43.022;25.100;2023-05-29T11:52:05;;;;23.00
70969;BMP280;58630;43.022;25.100;2023-05-29T11:54:30;;;;23.00
70969;BMP280;58630;43.022;25.100;2023-05-29T11:56:56;;;;22.90
70969;BMP280;58630;43.022;25.100;2023-05-29T11:59:21;;;;22.90
70969;BMP280;58630;43.022;25.100;2023-05-29T12:01:47;;;;22.90
70969;BMP280;58630;43.022;25.100;2023-05-29T12:04:14;;;;22.90
70969;BMP280;58630;43.022;25.100;2023-05-29T12:06:40;;;;22.90
70969;BMP280;58630;43.022;25.100;2023-05-29T12:09:07;;;;22.90
70969;BMP280;58630;43.022;25.100;2023-05-29T12:11:34;;;;23.00
70969;BMP280;58630;43.022;25.100;2023-05-29T12:14:00;;;;23.00
70969;BMP280;58630;43.022;25.100;2023-05-29T12:16:30;;;;23.10
70969;BMP280;58630;43.022;25.100;2023-05-29T12:18:56;;;;23.10
70969;BMP280;58630;43.022;25.100;2023-05-29T12:21:21;;;;23.20
70969;BMP280;58630;43.022;25.100;2023-05-29T12:23:48;;;;23.20
70969;BMP280;58630;43.022;25.100;2023-05-29T12:26:13;;;;23.30
70969;BMP280;58630;43.022;25.100;2023-05-29T12:28:44;;;;23.30
70969;BMP280;58630;43.022;25.100;2023-05-29T12:31:10;;;;23.40
70969;BMP280;58630;43.022;25.100;2023-05-29T12:33:36;;;;23.50
70969;BMP280;58630;43.022;25.100;2023-05-29T12:36:05;;;;23.50
70969;BMP280;58630;43.022;25.100;2023-05-29T12:38:31;;;;23.50
70969;BMP280;58630;43.022;25.100;2023-05-29T12:40:57;;;;23.50
70969;BMP280;58630;43.022;25.100;2023-05-29T12:43:22;;;;23.50
70969;BMP280;58630;43.022;25.100;2023-05-29T12:45:53;;;;23.50
70969;BMP280;58630;43.022;25.100;2023-05-29T12:48:20;;;;23.60
70969;BMP280;58630;43.022;25.100;2023-05-29T12:50:48;;;;23.70
70969;BMP280;58630;43.022;25.100;2023-05-29T12:53:14;;;;23.90
70969;BMP280;58630;43.022;25.100;2023-05-29T12:55:41;;;;23.90
70969;BMP280;58630;43.022;25.100;2023-05-29T12:58:08;;;;23.80
70969;BMP280;58630;43.022;25.100;2023-05-29T13:00:34;;;;23.70
70969;BMP280;58630;43.022;25.100;2023-05-29T13:03:00;;;;23.60
70969;BMP280;58630;43.022;25.100;2023-05-29T13:05:26;;;;23.50
70969;BMP280;58630;43.022;25.100;2023-05-29T13:07:52;;;;23.50
70969;BMP280;58630;43.022;25.100;2023-05-29T13:10:18;;;;23.40
70969;BMP280;58630;43.022;25.100;2023-05-29T13:12:43;;;;23.40
70969;BMP280;58630;43.022;25.100;2023-05-29T13:15:10;;;;23.30
70969;BMP280;58630;43.022;25.100;2023-05-29T13:17:36;;;;23.20
70969;BMP280;58630;43.022;25.100;2023-05-29T13:20:02;;;;23.20
70969;BMP280;58630;43.022;25.100;2023-05-29T13:22:27;;;;23.20
70969;BMP280;58630;43.022;25.100;2023-05-29T13:24:57;;;;23.20
70969;BMP280;58630;43.022;25.100;2023-05-29T13:27:23;;;;23.20
70969;BMP280;58630;43.022;25.100;2023-05-29T13:29:49;;;;23.20
70969;BMP280;58630;43.022;25.100;2023-05-29T13:32:21;;;;23.10
70969;BMP280;58630;43.022;25.100;2023-05-29T13:34:46;;;;23.10
70969;BMP280;58630;43.022;25.100;2023-05-29T13:37:12;;;;23.10
70969;BMP280;58630;43.022;25.100;2023-05-29T13:39:37;;;;23.10
70969;BMP280;58630;43.022;25.100;2023-05-29T13:42:03;;;;23.10
70969;BMP280;58630;43.022;25.100;2023-05-29T13:44:29;;;;23.00
70969;BMP280;58630;43.022;25.100;2023-05-29T13:46:54;;;;23.00
70969;BMP280;58630;43.022;25.100;2023-05-29T13:49:20;;;;23.00
70969;BMP280;58630;43.022;25.100;2023-05-29T13:51:46;;;;23.00
70969;BMP280;58630;43.022;25.100;2023-05-29T13:54:13;;;;23.00
70969;BMP280;58630;43.022;25.100;2023-05-29T13:56:39;;;;23.00
70969;BMP280;58630;43.022;25.100;2023-05-29T13:59:04;;;;22.90
70969;BMP280;58630;43.022;25.100;2023-05-29T14:01:32;;;;22.90
70969;BMP280;58630;43.022;25.100;2023-05-29T14:03:58;;;;22.90
70969;BMP280;58630;43.022;25.100;2023-05-29T14:06:24;;;;22.90
70969;BMP280;58630;43.022;25.100;2023-05-29T14:08:50;;;;22.90
70969;BMP280;58630;43.022;25.100;2023-05-29T14:11:15;;;;22.80
70969;BMP280;58630;43.022;25.100;2023-05-29T14:13:41;;;;22.80
70969;BMP280;58630;43.022;25.100;2023-05-29T14:16:06;;;;22.80
70969;BMP280;58630;43.022;25.100;2023-05-29T14:18:32;;;;22.70
70969;BMP280;58630;43.022;25.100;2023-05-29T14:20:57;;;;22.70
70969;BMP280;58630;43.022;25.100;2023-05-29T14:23:23;;;;22.70
70969;BMP280;58630;43.022;25.100;2023-05-29T14:25:48;;;;22.70
70969;BMP280;58630;43.022;25.100;2023-05-29T14:28:14;;;;22.70
70969;BMP280;58630;43.022;25.100;2023-05-29T14:30:39;;;;22.70
70969;BMP280;58630;43.022;25.100;2023-05-29T14:33:05;;;;22.70
70969;BMP280;58630;43.022;25.100;2023-05-29T14:35:30;;;;22.70
70969;BMP280;58630;43.022;25.100;2023-05-29T14:37:56;;;;22.60
70969;BMP280;58630;43.022;25.100;2023-05-29T14:40:22;;;;22.60
70969;BMP280;58630;43.022;25.100;2023-05-29T14:42:48;;;;22.60
70969;BMP280;58630;43.022;25.100;2023-05-29T14:45:13;;;;22.60
70969;BMP280;58630;43.022;25.100;2023-05-29T14:47:40;;;;22.60
70969;BMP280;58630;43.022;25.100;2023-05-29T14:50:05;;;;22.60
70969;BMP280;58630;43.022;25.100;2023-05-29T14:52:31;;;;22.60
70969;BMP280;58630;43.022;25.100;2023-05-29T14:54:56;;;;22.60
70969;BMP280;58630;43.022;25.100;2023-05-29T14:57:22;;;;22.50
70969;BMP280;58630;43.022;25.100;2023-05-29T14:59:47;;;;22.60
70969;BMP280;58630;43.022;25.100;2023-05-29T15:02:13;;;;22.60
70969;BMP280;58630;43.022;25.100;2023-05-29T15:04:39;;;;22.50
70969;BMP280;58630;43.022;25.100;2023-05-29T15:07:04;;;;22.60
70969;BMP280;58630;43.022;25.100;2023-05-29T15:09:30;;;;22.60
70969;BMP280;58630;43.022;25.100;2023-05-29T15:11:55;;;;22.60
70969;BMP280;58630;43.022;25.100;2023-05-29T15:14:21;;;;22.60
70969;BMP280;58630;43.022;25.100;2023-05-29T15:16:46;;;;22.60
70969;BMP280;58630;43.022;25.100;2023-05-29T15:19:14;;;;22.60
70969;BMP280;58630;43.022;25.100;2023-05-29T15:21:40;;;;22.60
70969;BMP280;58630;43.022;25.100;2023-05-29T15:24:05;;;;22.60
70969;BMP280;58630;43.022;25.100;2023-05-29T15:26:31;;;;22.60
70969;BMP280;58630;43.022;25.100;2023-05-29T15:28:56;;;;22.60
70969;BMP280;58630;43.022;25.100;2023-05-29T15:31:22;;;;22.60
70969;BMP280;58630;43.022;25.100;2023-05-29T15:33:48;;;;22.60
70969;BMP280;58630;43.022;25.100;2023-05-29T15:36:13;;;;22.60
70969;BMP280;58630;43.022;25.100;2023-05-29T15:38:41;;;;22.60
70969;BMP280;58630;43.022;25.100;2023-05-29T15:41:07;;;;22.70
70969;BMP280;58630;43.022;25.100;2023-05-29T15:43:32;;;;22.70
70969;BMP280;58630;43.022;25.100;2023-05-29T15:45:58;;;;22.70
70969;BMP280;58630;43.022;25.100;2023-05-29T15:48:23;;;;22.70
70969;BMP280;58630;43.022;25.100;2023-05-29T15:50:49;;;;22.70
70969;BMP280;58630;43.022;25.100;2023-05-29T15:53:15;;;;22.70
70969;BMP280;58630;43.022;25.100;2023-05-29T15:55:40;;;;22.70
70969;BMP280;58630;43.022;25.100;2023-05-29T15:58:07;;;;22.70
70969;BMP280;58630;43.022;25.100;2023-05-29T16:00:33;;;;22.70
70969;BMP280;58630;43.022;25.100;2023-05-29T16:02:59;;;;22.70
70969;BMP280;58630;43.022;25.100;2023-05-29T16:05:26;;;;22.70
70969;BMP280;58630;43.022;25.100;2023-05-29T16:07:52;;;;22.70
70969;BMP280;58630;43.022;25.100;2023-05-29T16:10:18;;;;22.60